Terminal Aerodrome Forecast
Issued by NWS

Home | Current Version | Previous Version | Text Only | Print | Product List | Glossary On
Versions: 1 2 3 4 5 6 7 8 9 10 11 12 13 14 15 16 17 18 19 20
371
FTUS46 KMFR 211138
TAFRBG
TAF
KRBG 211138Z 2112/2212 VRB02KT P6SM VCSH BKN030 OVC040
     FM211300 VRB02KT P6SM VCSH BKN020 OVC035
     FM211900 36007KT P6SM FEW035 SCT050
     FM212100 36012KT P6SM FEW050 FEW250
     FM220300 35006KT P6SM SCT250=

USA.gov is the U.S. government's official web portal to all federal, state and local government web resources and services.